createdAt,value
2024-01-20T14:39:33.805Z,6.63
2024-01-20T14:49:53.663Z,1.32
2024-01-20T14:59:48.154Z,1.14
2024-01-20T15:09:43.886Z,0.38
2024-01-20T15:19:34.201Z,2.55
2024-01-20T15:29:34.226Z,0.99
2024-01-20T15:39:34.506Z,0.19
2024-01-20T15:49:34.750Z,-0.23
2024-01-20T15:59:34.969Z,-0.32
2024-01-20T16:09:35.271Z,-0.38
2024-01-20T16:19:35.877Z,-0.81
2024-01-20T16:29:35.538Z,-1.31
2024-01-20T16:39:35.727Z,-1.17
2024-01-20T16:49:36.294Z,-1.51
2024-01-20T16:59:36.109Z,-1.62
2024-01-20T17:09:36.409Z,-1.71
2024-01-20T17:19:36.445Z,-2.28
2024-01-20T17:29:36.669Z,-2.25
2024-01-20T17:39:36.891Z,-2.37
2024-01-20T17:49:37.192Z,-2.35
2024-01-20T17:59:37.205Z,-2.59
2024-01-20T18:09:40.799Z,-2.86
2024-01-20T18:19:37.645Z,-3.00
2024-01-20T18:29:37.862Z,-3.55
2024-01-20T18:39:38.272Z,-3.61
2024-01-20T18:49:38.403Z,-3.36
2024-01-20T18:59:38.378Z,-3.49
2024-01-20T19:09:38.969Z,-3.61
2024-01-20T19:19:38.814Z,-3.74
2024-01-20T19:29:39.095Z,-3.81
2024-01-20T19:39:39.119Z,-3.79
2024-01-20T19:49:39.584Z,-4.28
2024-01-20T19:59:39.891Z,-4.22
2024-01-20T20:09:39.953Z,-4.07
2024-01-20T20:19:40.125Z,-4.09
2024-01-20T20:29:40.331Z,-4.31
2024-01-20T20:39:40.447Z,-4.51
2024-01-20T20:49:42.533Z,-4.58
2024-01-20T20:59:40.526Z,-4.85
2024-01-20T21:09:44.010Z,-5.09
2024-01-20T21:19:42.018Z,-4.76
2024-01-20T21:29:41.216Z,-4.88
2024-01-20T21:39:41.405Z,-5.02
2024-01-20T21:49:41.621Z,-5.02
2024-01-20T21:59:41.670Z,-4.93
2024-01-20T22:09:41.799Z,-4.79
2024-01-20T22:19:41.884Z,-5.08
2024-01-20T22:29:42.138Z,-5.28
2024-01-20T22:39:42.401Z,-5.43
2024-01-20T22:49:42.644Z,-5.60
2024-01-20T22:59:42.816Z,-5.63
2024-01-20T23:09:44.121Z,-5.60
2024-01-20T23:19:43.300Z,-5.63
2024-01-20T23:29:43.647Z,-5.88
2024-01-20T23:39:43.766Z,-5.70
2024-01-20T23:49:45.858Z,-5.33
2024-01-20T23:59:43.841Z,-4.79
